Cheltenham, Maryland
Current Conditions -  °F | °C
As of 6:55 AM on Sunday 21 Dec 2014 (Local Time) from KADW Reporting Station
Overcast Overcast  
Wind Chill: 31°   Ceiling: 6500
Heat Index: 31°   Visibility: 10mi
Dew Point: 26°   Wind: 0mph
Humidity: 80%   Direction: NA
Pressure: 32.32"   Gusts: NA
Location:  38.74°N, 76.83°W
Report Text: KADW 211155Z 00000KT 10SM OVC065 00/M03 A3232 RMK AO2A SLP272 T10031034 10007 21014 53009
Loading
Personal Weather Stations






























Interactive Weather Map New forecast layout! Learn more

10-Day Weather Forecast

Advertisements
Track Severe Weather on mobile